Time;durP1;ratioP1;P1;durP2;ratioP2;P2;SDS_P1;SDS_P2;PMS_P1;PMS_P2;Temp;Humidity;BMP_temperature;BMP_pressure;BME280_temperature;BME280_humidity;BME280_pressure;Samples;Min_cycle;Max_cycle;Signal;HPM_P1;HPM_P2
2022/10/12 00:00:22;;;;;;;6.37;2.80;;;4.60;99.90;;;;;;5019716;28;20268;-83
2022/10/12 00:02:48;;;;;;;7.70;3.17;;;4.80;99.90;;;;;;5044177;28;20230;-83
2022/10/12 00:05:15;;;;;;;7.47;3.10;;;4.70;99.90;;;;;;5047204;28;20207;-83
2022/10/12 00:07:42;;;;;;;5.93;3.20;;;4.70;99.90;;;;;;5059967;28;20223;-83
2022/10/12 00:10:09;;;;;;;9.27;3.97;;;4.80;99.90;;;;;;5059733;28;20201;-82
2022/10/12 00:12:37;;;;;;;6.20;3.70;;;4.70;99.90;;;;;;5059520;28;20209;-82
2022/10/12 00:15:05;;;;;;;8.40;4.07;;;4.90;99.90;;;;;;5060436;28;20671;-82
2022/10/12 00:17:32;;;;;;;7.80;4.60;;;4.80;99.90;;;;;;5059722;28;20307;-82
2022/10/12 00:19:58;;;;;;;10.10;4.40;;;5.00;99.90;;;;;;5058092;28;20796;-82
2022/10/12 00:22:25;;;;;;;9.70;4.37;;;5.10;99.90;;;;;;5060226;28;20606;-83
2022/10/12 00:24:53;;;;;;;9.10;4.43;;;5.10;99.90;;;;;;5059697;28;20271;-83
2022/10/12 00:27:19;;;;;;;8.63;4.33;;;5.10;99.90;;;;;;5059805;28;20225;-83
2022/10/12 00:29:48;;;;;;;9.33;4.60;;;5.10;99.90;;;;;;5058588;28;20615;-83
2022/10/12 00:32:15;;;;;;;7.93;3.90;;;5.00;99.90;;;;;;5059670;28;20195;-82
2022/10/12 00:34:41;;;;;;;7.33;3.90;;;5.00;99.90;;;;;;5059306;28;20280;-83
2022/10/12 00:37:08;;;;;;;5.87;3.30;;;5.10;99.90;;;;;;5058889;28;20227;-82
2022/10/12 00:39:35;;;;;;;5.40;3.53;;;4.90;99.90;;;;;;5059518;28;20207;-83
2022/10/12 00:42:02;;;;;;;7.47;3.50;;;4.50;99.90;;;;;;5059941;28;20231;-83
2022/10/12 00:44:39;;;;;;;4.43;3.10;;;4.30;99.90;;;;;;5059762;28;20207;-83
2022/10/12 00:47:16;;;;;;;6.80;3.90;;;4.40;99.90;;;;;;5029533;28;20245;-83
2022/10/12 00:49:45;;;;;;;8.87;3.77;;;4.70;99.90;;;;;;5059431;28;20203;-83
2022/10/12 00:52:15;;;;;;;4.87;3.20;;;4.60;99.90;;;;;;5054976;28;20218;-82
2022/10/12 00:54:46;;;;;;;2.97;2.60;;;4.60;99.90;;;;;;5040103;28;20298;-82
2022/10/12 00:57:15;;;;;;;3.47;3.07;;;4.20;99.90;;;;;;5039578;28;20227;-83
2022/10/12 00:59:48;;;;;;;4.13;3.33;;;4.00;99.90;;;;;;5039953;28;20195;-82
2022/10/12 01:02:16;;;;;;;4.50;3.27;;;4.10;99.90;;;;;;5039704;28;20274;-83
2022/10/12 01:04:44;;;;;;;3.90;3.17;;;4.00;99.90;;;;;;5039985;28;20227;-82
2022/10/12 01:07:11;;;;;;;3.77;3.00;;;4.20;99.90;;;;;;5040439;28;20239;-82
2022/10/12 01:09:38;;;;;;;7.60;4.07;;;4.30;99.90;;;;;;5040186;28;20208;-82
2022/10/12 01:12:07;;;;;;;6.47;3.90;;;4.20;99.90;;;;;;5039534;28;20686;-82
2022/10/12 01:14:34;;;;;;;3.87;3.40;;;4.20;99.90;;;;;;5039856;28;20386;-83
2022/10/12 01:17:08;;;;;;;9.70;4.27;;;4.30;99.90;;;;;;5038971;28;20215;-83
2022/10/12 01:20:10;;;;;;;5.93;3.70;;;4.30;99.90;;;;;;5040158;28;20196;-83
2022/10/12 01:22:44;;;;;;;5.43;3.57;;;4.20;99.90;;;;;;5039376;28;20223;-83
2022/10/12 01:25:26;;;;;;;8.20;3.70;;;4.20;99.90;;;;;;5039638;28;20202;-83
2022/10/12 01:27:56;;;;;;;7.43;3.67;;;4.20;99.90;;;;;;5039509;28;20233;-83
2022/10/12 01:30:26;;;;;;;4.63;3.20;;;4.20;99.90;;;;;;5039540;28;20586;-82
2022/10/12 01:33:15;;;;;;;7.07;3.70;;;4.40;99.90;;;;;;5039666;28;20203;-83
2022/10/12 01:35:51;;;;;;;6.90;4.47;;;4.20;99.90;;;;;;5039223;28;20204;-82
2022/10/12 01:38:26;;;;;;;6.23;4.03;;;4.00;99.90;;;;;;5039090;28;20242;-83
2022/10/12 01:40:59;;;;;;;7.77;3.80;;;3.70;99.90;;;;;;5044765;28;20702;-82
2022/10/12 01:43:34;;;;;;;5.07;3.43;;;3.70;99.90;;;;;;5059157;28;20199;-83
2022/10/12 01:46:22;;;;;;;5.77;3.70;;;3.90;99.90;;;;;;5059055;28;20624;-82
2022/10/12 01:48:53;;;;;;;6.03;3.90;;;3.80;99.90;;;;;;5059811;28;20211;-83
2022/10/12 01:51:29;;;;;;;3.90;3.43;;;3.80;99.90;;;;;;5057957;28;20215;-82
2022/10/12 01:54:08;;;;;;;4.83;3.30;;;3.90;99.90;;;;;;5043170;28;20628;-82
2022/10/12 01:56:42;;;;;;;3.10;2.80;;;3.70;99.90;;;;;;5042842;28;20553;-83
2022/10/12 01:59:18;;;;;;;5.60;3.73;;;3.80;99.90;;;;;;5042089;28;20206;-83
2022/10/12 02:01:55;;;;;;;9.13;3.90;;;3.90;99.90;;;;;;5035686;28;20608;-83
2022/10/12 02:04:27;;;;;;;5.17;3.80;;;4.00;99.90;;;;;;5034869;28;20218;-83
2022/10/12 02:07:13;;;;;;;7.27;3.70;;;4.00;99.90;;;;;;5032589;28;20407;-82
2022/10/12 02:09:41;;;;;;;9.73;6.07;;;4.20;99.90;;;;;;5036333;28;20675;-82
2022/10/12 02:12:13;;;;;;;15.50;7.73;;;4.10;99.90;;;;;;5041595;28;20212;-82
2022/10/12 02:14:43;;;;;;;13.63;8.03;;;4.10;99.90;;;;;;5041358;28;20215;-82
2022/10/12 02:17:15;;;;;;;14.77;8.53;;;4.40;99.90;;;;;;5041126;28;20211;-83
2022/10/12 02:19:47;;;;;;;12.50;7.33;;;4.50;99.90;;;;;;5039228;28;20211;-82
2022/10/12 02:22:16;;;;;;;13.53;6.27;;;4.60;99.90;;;;;;5041170;28;20679;-83
2022/10/12 02:24:47;;;;;;;10.50;4.97;;;4.30;99.90;;;;;;5040517;28;20208;-82
2022/10/12 02:27:15;;;;;;;9.77;4.33;;;4.30;99.90;;;;;;5041448;28;20223;-83
2022/10/12 02:29:45;;;;;;;7.13;4.47;;;4.30;99.90;;;;;;5041444;28;20217;-82
2022/10/12 02:32:18;;;;;;;8.67;4.33;;;4.30;99.90;;;;;;5030341;28;20219;-82
2022/10/12 02:34:50;;;;;;;9.77;4.13;;;4.40;99.90;;;;;;5040227;28;20196;-82
2022/10/12 02:37:27;;;;;;;6.10;3.70;;;4.20;99.90;;;;;;5041102;28;20228;-82
2022/10/12 02:39:55;;;;;;;6.33;3.43;;;4.20;99.90;;;;;;5040634;28;20281;-83
2022/10/12 02:42:28;;;;;;;7.70;3.90;;;4.20;99.90;;;;;;5026936;28;20254;-82
2022/10/12 02:44:57;;;;;;;6.10;3.67;;;4.10;99.90;;;;;;5032831;28;20206;-83
2022/10/12 02:47:28;;;;;;;7.57;3.70;;;4.30;99.90;;;;;;5040208;28;20227;-83
2022/10/12 02:49:57;;;;;;;7.57;3.93;;;4.20;99.90;;;;;;5041043;28;20196;-83
2022/10/12 02:52:24;;;;;;;10.17;3.60;;;4.30;99.90;;;;;;5039624;28;20200;-83
2022/10/12 02:54:51;;;;;;;8.50;3.80;;;4.20;99.90;;;;;;5055667;28;20195;-82
2022/10/12 02:57:18;;;;;;;7.30;3.50;;;4.10;99.90;;;;;;5059520;28;20314;-82
2022/10/12 02:59:45;;;;;;;7.40;3.50;;;4.10;99.90;;;;;;5060644;28;20900;-82
2022/10/12 03:02:12;;;;;;;7.10;3.63;;;4.10;99.90;;;;;;5042456;28;20314;-82
2022/10/12 03:04:40;;;;;;;7.03;3.50;;;4.10;99.90;;;;;;5046616;28;20282;-83
2022/10/12 03:07:07;;;;;;;7.87;3.33;;;4.00;99.90;;;;;;5047157;28;20227;-83
2022/10/12 03:09:34;;;;;;;6.00;3.50;;;3.70;99.90;;;;;;5060899;28;20698;-82
2022/10/12 03:12:00;;;;;;;6.43;3.30;;;3.50;99.90;;;;;;5054115;28;20211;-82
2022/10/12 03:14:27;;;;;;;3.60;2.93;;;3.20;99.90;;;;;;5060432;28;20209;-82
2022/10/12 03:16:54;;;;;;;2.80;2.50;;;3.20;99.90;;;;;;5054059;28;20216;-82
2022/10/12 03:19:21;;;;;;;6.77;3.10;;;3.40;99.90;;;;;;5053284;28;20214;-82
2022/10/12 03:21:49;;;;;;;9.03;3.30;;;3.40;99.90;;;;;;5051087;28;20268;-83
2022/10/12 03:24:16;;;;;;;4.60;2.80;;;3.50;99.90;;;;;;5040649;28;20278;-82
2022/10/12 03:26:42;;;;;;;4.10;2.97;;;3.40;99.90;;;;;;5021945;28;20234;-82
2022/10/12 03:29:09;;;;;;;4.30;2.87;;;3.50;99.90;;;;;;5030066;28;20199;-82
2022/10/12 03:31:36;;;;;;;5.07;2.83;;;3.60;99.90;;;;;;5057472;28;20661;-84
2022/10/12 03:34:03;;;;;;;4.57;3.10;;;3.60;99.90;;;;;;5055873;28;20256;-84
2022/10/12 03:36:31;;;;;;;8.87;3.53;;;3.50;99.90;;;;;;5047886;28;20214;-85
2022/10/12 03:38:59;;;;;;;8.20;4.30;;;3.40;99.90;;;;;;5034741;28;20225;-86
2022/10/12 03:41:25;;;;;;;7.80;3.80;;;3.50;99.90;;;;;;5035735;28;20203;-86
2022/10/12 03:43:52;;;;;;;6.83;3.50;;;3.60;99.90;;;;;;5024411;28;20208;-84
2022/10/12 03:46:19;;;;;;;8.00;3.60;;;3.60;99.90;;;;;;5017077;28;20200;-83
2022/10/12 03:48:46;;;;;;;5.70;3.60;;;3.70;99.90;;;;;;5016441;28;20212;-84
2022/10/12 03:51:13;;;;;;;6.73;3.50;;;3.70;99.90;;;;;;5014675;28;20215;-84
2022/10/12 03:53:40;;;;;;;7.40;3.77;;;3.60;99.90;;;;;;5016359;28;20204;-84
2022/10/12 03:56:08;;;;;;;10.57;3.80;;;3.60;99.90;;;;;;5017762;28;20616;-83
2022/10/12 03:58:36;;;;;;;8.13;3.50;;;3.70;99.90;;;;;;5016730;28;20216;-84
2022/10/12 04:01:03;;;;;;;8.73;3.70;;;3.70;99.90;;;;;;5016702;28;20680;-85
2022/10/12 04:03:30;;;;;;;5.73;3.90;;;3.80;99.90;;;;;;5016563;28;20234;-84
2022/10/12 04:05:58;;;;;;;5.67;2.97;;;3.70;99.90;;;;;;5016012;28;20880;-84
2022/10/12 04:08:26;;;;;;;7.13;3.33;;;3.40;99.90;;;;;;5016146;28;20319;-84
2022/10/12 04:10:53;;;;;;;4.27;3.13;;;3.30;99.90;;;;;;5017056;28;20208;-84
2022/10/12 04:13:21;;;;;;;4.13;2.80;;;3.40;99.90;;;;;;5033163;28;20206;-84
2022/10/12 04:15:48;;;;;;;4.37;3.33;;;3.10;99.90;;;;;;5028547;28;20203;-84
2022/10/12 04:18:15;;;;;;;5.43;3.33;;;3.10;99.90;;;;;;5036058;28;20223;-84
2022/10/12 04:20:41;;;;;;;5.23;3.17;;;3.10;99.90;;;;;;5035305;28;20221;-85
2022/10/12 04:23:08;;;;;;;4.97;3.37;;;3.00;99.90;;;;;;5036110;28;20258;-84
2022/10/12 04:25:35;;;;;;;17.70;3.33;;;3.00;99.90;;;;;;5033586;28;20211;-84
2022/10/12 04:28:02;;;;;;;13.00;3.00;;;3.00;99.90;;;;;;5036796;28;20258;-84
2022/10/12 04:30:31;;;;;;;26.00;4.27;;;2.90;99.90;;;;;;5037720;28;20209;-81
2022/10/12 04:32:58;;;;;;;5.70;3.20;;;2.80;99.90;;;;;;5036893;28;20204;-83
2022/10/12 04:35:25;;;;;;;14.20;7.13;;;2.90;99.90;;;;;;5036095;28;20205;-83
2022/10/12 04:37:52;;;;;;;12.77;7.90;;;3.00;99.90;;;;;;5038281;28;20234;-83
2022/10/12 04:40:19;;;;;;;6.93;4.33;;;3.10;99.90;;;;;;5036517;28;20683;-84
2022/10/12 04:42:45;;;;;;;6.23;4.20;;;3.10;99.90;;;;;;5035466;28;20234;-85
2022/10/12 04:45:12;;;;;;;9.53;4.07;;;3.10;99.90;;;;;;5033857;28;20214;-85
2022/10/12 04:47:41;;;;;;;9.47;4.83;;;3.10;99.90;;;;;;5032552;28;20231;-85
2022/10/12 04:50:08;;;;;;;19.27;5.20;;;3.00;99.90;;;;;;5032321;28;20203;-85
2022/10/12 04:52:35;;;;;;;21.63;5.30;;;3.10;99.90;;;;;;5032009;28;20202;-85
2022/10/12 04:55:02;;;;;;;25.77;4.77;;;3.10;99.90;;;;;;5033122;28;20199;-84
2022/10/12 04:57:29;;;;;;;13.10;4.10;;;3.00;99.90;;;;;;5034481;28;20234;-84
2022/10/12 04:59:56;;;;;;;8.70;3.43;;;3.00;99.90;;;;;;5034397;28;20642;-84
2022/10/12 05:02:23;;;;;;;7.53;3.43;;;2.90;99.90;;;;;;5038066;28;20223;-84
2022/10/12 05:04:51;;;;;;;10.80;3.40;;;2.90;99.90;;;;;;5034153;28;20222;-84
2022/10/12 05:07:18;;;;;;;8.67;3.43;;;3.00;99.90;;;;;;5033839;28;20219;-84
2022/10/12 05:09:45;;;;;;;13.27;3.60;;;3.10;99.90;;;;;;5025681;28;20920;-85
2022/10/12 05:12:11;;;;;;;9.03;4.07;;;3.10;99.90;;;;;;5032943;28;20222;-84
2022/10/12 05:14:38;;;;;;;8.17;3.37;;;3.10;99.90;;;;;;5032457;28;20222;-84
2022/10/12 05:17:05;;;;;;;10.87;3.60;;;3.10;99.90;;;;;;5032080;28;20236;-85
2022/10/12 05:19:32;;;;;;;10.93;3.47;;;3.10;99.90;;;;;;5034079;28;20573;-84
2022/10/12 05:22:00;;;;;;;5.13;2.97;;;3.10;99.90;;;;;;5033275;28;20321;-84
2022/10/12 05:24:27;;;;;;;10.23;3.43;;;3.00;99.90;;;;;;5033812;28;20228;-85
2022/10/12 05:26:55;;;;;;;11.97;4.03;;;3.30;99.90;;;;;;5032457;28;20231;-85
2022/10/12 05:29:22;;;;;;;10.07;4.10;;;3.10;99.90;;;;;;5039399;28;20210;-85
2022/10/12 05:31:48;;;;;;;12.80;4.53;;;3.30;99.90;;;;;;5041496;28;20207;-85
2022/10/12 05:34:15;;;;;;;12.40;4.80;;;3.20;99.90;;;;;;5033657;28;20200;-85
2022/10/12 05:36:42;;;;;;;13.60;4.83;;;3.00;99.90;;;;;;5033479;28;20224;-85
2022/10/12 05:39:10;;;;;;;8.70;4.13;;;3.00;99.90;;;;;;5032336;28;20204;-85
2022/10/12 05:41:37;;;;;;;11.40;4.53;;;2.90;99.90;;;;;;5029823;28;20219;-84
2022/10/12 05:44:04;;;;;;;8.00;4.30;;;3.00;99.90;;;;;;5027678;28;20215;-85
2022/10/12 05:46:31;;;;;;;9.23;4.23;;;3.00;99.90;;;;;;5034558;28;20208;-85
2022/10/12 05:48:58;;;;;;;9.20;5.17;;;3.00;99.90;;;;;;5033126;28;20206;-85
2022/10/12 05:51:25;;;;;;;8.87;4.80;;;3.10;99.90;;;;;;5032833;28;20683;-84
2022/10/12 05:53:51;;;;;;;12.30;5.00;;;3.20;99.90;;;;;;5032535;28;20226;-84
2022/10/12 05:56:20;;;;;;;11.73;5.47;;;3.30;99.90;;;;;;5032658;28;20589;-84
2022/10/12 05:58:46;;;;;;;12.40;4.20;;;3.20;99.90;;;;;;5033531;28;20208;-84
2022/10/12 06:01:14;;;;;;;10.70;4.90;;;3.20;99.90;;;;;;5034067;28;20238;-84
2022/10/12 06:03:41;;;;;;;9.23;4.80;;;3.20;99.90;;;;;;5030884;28;20313;-84
2022/10/12 06:06:09;;;;;;;6.67;4.67;;;3.20;99.90;;;;;;5031994;28;20203;-84
2022/10/12 06:08:36;;;;;;;12.03;4.70;;;3.30;99.90;;;;;;5023284;28;20303;-84
2022/10/12 06:11:03;;;;;;;7.63;4.63;;;3.30;99.90;;;;;;5013112;28;20208;-84
2022/10/12 06:13:31;;;;;;;8.40;4.60;;;3.30;99.90;;;;;;5013262;28;20227;-85
2022/10/12 06:15:58;;;;;;;7.53;4.10;;;3.30;99.90;;;;;;5012588;28;20287;-85
2022/10/12 06:18:25;;;;;;;6.47;3.97;;;3.30;99.90;;;;;;5013633;28;20316;-84
2022/10/12 06:20:54;;;;;;;7.93;3.50;;;3.20;99.90;;;;;;5013225;28;20295;-84
2022/10/12 06:23:21;;;;;;;8.93;4.20;;;3.40;99.90;;;;;;5013492;28;20315;-85
2022/10/12 06:25:50;;;;;;;6.30;3.73;;;3.20;99.90;;;;;;5013348;28;20204;-85
2022/10/12 06:28:18;;;;;;;10.70;4.40;;;3.30;99.90;;;;;;5013295;28;20264;-84
2022/10/12 06:30:52;;;;;;;10.70;3.80;;;3.30;99.90;;;;;;5013260;28;20649;-84
2022/10/12 06:33:19;;;;;;;9.47;4.40;;;3.20;99.90;;;;;;5013077;28;20276;-85
2022/10/12 06:35:46;;;;;;;7.77;4.20;;;3.40;99.90;;;;;;5016654;28;20707;-84
2022/10/12 06:38:14;;;;;;;8.17;4.13;;;3.40;99.90;;;;;;5016191;28;20290;-84
2022/10/12 06:40:41;;;;;;;9.10;4.30;;;3.50;99.90;;;;;;5016583;28;20224;-84
2022/10/12 06:43:08;;;;;;;11.03;4.50;;;3.70;99.90;;;;;;5016641;28;20661;-85
2022/10/12 06:45:37;;;;;;;11.03;4.27;;;3.80;99.90;;;;;;5016662;28;20247;-85
2022/10/12 06:48:06;;;;;;;11.60;5.20;;;3.80;99.90;;;;;;5016572;28;20308;-85
2022/10/12 06:50:33;;;;;;;13.97;6.00;;;3.80;99.90;;;;;;5016098;28;20242;-85
2022/10/12 06:53:00;;;;;;;10.30;5.23;;;3.80;99.90;;;;;;5016288;28;20279;-84
2022/10/12 06:55:27;;;;;;;8.00;4.80;;;3.90;99.90;;;;;;5016536;28;20294;-84
2022/10/12 06:57:55;;;;;;;10.77;5.20;;;4.00;99.90;;;;;;5015880;28;20646;-85
2022/10/12 07:00:22;;;;;;;8.70;4.50;;;4.10;99.90;;;;;;5016019;28;20239;-85
2022/10/12 07:02:49;;;;;;;6.90;4.30;;;4.30;99.90;;;;;;5016304;28;20211;-85
2022/10/12 07:05:19;;;;;;;7.53;4.37;;;4.30;99.90;;;;;;5016189;28;20196;-84
2022/10/12 07:07:46;;;;;;;8.47;4.13;;;4.30;99.90;;;;;;5015899;28;20593;-84
2022/10/12 07:10:13;;;;;;;10.23;4.63;;;4.30;99.90;;;;;;5015778;28;20197;-85
2022/10/12 07:12:40;;;;;;;11.40;4.60;;;4.20;99.90;;;;;;5016147;28;20289;-85
2022/10/12 07:15:08;;;;;;;9.53;4.47;;;4.40;99.90;;;;;;5015947;28;20246;-84
2022/10/12 07:17:35;;;;;;;12.10;5.33;;;4.50;99.90;;;;;;5015972;28;20270;-84
2022/10/12 07:20:02;;;;;;;10.00;4.90;;;4.50;99.90;;;;;;5015678;28;20240;-84
2022/10/12 07:22:30;;;;;;;8.33;4.10;;;4.80;99.90;;;;;;5015984;28;20199;-84
2022/10/12 07:24:57;;;;;;;7.07;3.93;;;4.60;99.90;;;;;;5015461;28;20703;-84
2022/10/12 07:27:24;;;;;;;8.60;4.07;;;4.60;99.90;;;;;;5015965;28;20326;-85
2022/10/12 07:29:51;;;;;;;8.63;4.27;;;4.60;99.90;;;;;;5015884;28;20224;-84
2022/10/12 07:32:17;;;;;;;8.13;4.30;;;4.80;99.90;;;;;;5016189;28;20644;-85
2022/10/12 07:34:44;;;;;;;12.13;5.23;;;4.90;99.90;;;;;;5016086;28;20712;-85
2022/10/12 07:37:12;;;;;;;11.03;5.13;;;5.00;99.90;;;;;;5015674;28;20234;-85
2022/10/12 07:39:41;;;;;;;9.47;5.00;;;5.10;99.90;;;;;;5015871;28;20283;-84
2022/10/12 07:42:09;;;;;;;9.90;5.03;;;5.10;99.90;;;;;;5015474;28;20204;-84
2022/10/12 07:44:36;;;;;;;10.63;5.27;;;5.40;99.90;;;;;;5015791;28;20224;-85
2022/10/12 07:47:02;;;;;;;7.57;4.77;;;5.80;99.90;;;;;;5028465;28;20318;-85
2022/10/12 07:49:29;;;;;;;13.83;5.37;;;5.70;99.90;;;;;;5034275;28;20279;-85
2022/10/12 07:51:56;;;;;;;10.83;5.83;;;5.70;99.90;;;;;;5033827;28;20206;-85
2022/10/12 07:54:23;;;;;;;11.33;6.10;;;5.80;99.90;;;;;;5034379;28;20199;-84
2022/10/12 07:56:51;;;;;;;12.93;5.50;;;6.10;99.90;;;;;;5033791;28;20216;-85
2022/10/12 07:59:18;;;;;;;12.33;5.00;;;6.20;99.90;;;;;;5034815;28;20252;-85
2022/10/12 08:01:45;;;;;;;25.27;5.47;;;6.20;99.90;;;;;;5031239;28;20200;-85
2022/10/12 08:04:11;;;;;;;14.27;5.20;;;6.30;99.90;;;;;;5014104;28;20221;-84
2022/10/12 08:06:42;;;;;;;13.17;4.93;;;6.50;99.90;;;;;;5014936;28;20216;-84
2022/10/12 08:09:09;;;;;;;14.23;5.20;;;6.60;99.90;;;;;;5028291;28;20231;-85
2022/10/12 08:11:38;;;;;;;9.37;4.90;;;6.80;99.90;;;;;;5032835;28;20579;-84
2022/10/12 08:14:06;;;;;;;13.50;5.63;;;7.10;99.90;;;;;;5034352;28;20206;-85
2022/10/12 08:16:33;;;;;;;9.73;5.00;;;7.20;99.90;;;;;;5032199;28;20581;-85
2022/10/12 08:19:00;;;;;;;11.07;5.83;;;7.30;99.90;;;;;;5034270;28;20229;-84
2022/10/12 08:21:27;;;;;;;12.23;5.70;;;7.50;99.90;;;;;;5033406;28;20205;-85
2022/10/12 08:23:54;;;;;;;9.37;5.20;;;7.50;99.90;;;;;;5033809;28;20237;-84
2022/10/12 08:26:20;;;;;;;14.10;6.13;;;7.60;99.90;;;;;;5034004;28;20565;-84
2022/10/12 08:28:47;;;;;;;15.37;6.30;;;7.60;99.90;;;;;;5034075;28;20553;-85
2022/10/12 08:31:18;;;;;;;13.43;6.70;;;7.70;99.90;;;;;;5031454;28;20211;-84
2022/10/12 08:33:45;;;;;;;14.73;7.00;;;7.90;99.90;;;;;;5033524;28;20200;-84
2022/10/12 08:36:12;;;;;;;13.37;6.47;;;7.90;99.90;;;;;;5032852;28;20208;-84
2022/10/12 08:38:42;;;;;;;14.57;5.83;;;8.10;99.90;;;;;;5031215;28;20673;-84
2022/10/12 08:41:26;;;;;;;16.27;6.83;;;8.40;99.90;;;;;;5012963;28;20215;-84
2022/10/12 08:44:03;;;;;;;16.93;5.93;;;8.40;99.90;;;;;;5014713;28;20204;-84
2022/10/12 08:46:32;;;;;;;12.73;6.37;;;8.40;99.90;;;;;;5013764;28;20698;-85
2022/10/12 08:49:04;;;;;;;11.10;5.20;;;8.50;99.90;;;;;;5013981;28;20210;-84
2022/10/12 08:51:36;;;;;;;18.17;5.50;;;8.50;99.90;;;;;;5012738;28;20291;-86
2022/10/12 08:54:07;;;;;;;12.57;5.53;;;8.70;99.90;;;;;;5014274;28;20208;-85
2022/10/12 08:56:34;;;;;;;13.77;4.70;;;8.80;99.90;;;;;;5019971;28;20217;-85
2022/10/12 08:59:02;;;;;;;15.07;5.43;;;9.00;99.90;;;;;;5033564;28;20204;-85
2022/10/12 09:01:35;;;;;;;11.37;4.93;;;9.10;99.90;;;;;;5032945;28;20227;-84
2022/10/12 09:04:16;;;;;;;8.70;4.73;;;9.20;99.90;;;;;;5033337;28;20226;-84
2022/10/12 09:06:47;;;;;;;13.80;5.30;;;9.40;99.90;;;;;;5036814;28;20227;-85
2022/10/12 09:09:30;;;;;;;9.67;3.80;;;9.50;99.90;;;;;;5033152;28;20604;-85
2022/10/12 09:12:09;;;;;;;12.20;4.43;;;9.60;99.90;;;;;;5031393;28;20675;-85
2022/10/12 09:14:40;;;;;;;11.67;4.70;;;9.80;99.90;;;;;;5033301;28;20747;-84
2022/10/12 09:17:23;;;;;;;12.73;4.90;;;9.90;99.90;;;;;;5034094;28;20232;-85
2022/10/12 09:20:00;;;;;;;12.93;5.33;;;10.00;99.90;;;;;;5032803;28;20209;-85
2022/10/12 09:22:29;;;;;;;15.00;5.50;;;10.10;99.90;;;;;;5033535;28;20202;-85
2022/10/12 09:24:58;;;;;;;11.20;4.90;;;10.20;99.90;;;;;;5033225;28;20246;-85
2022/10/12 09:27:30;;;;;;;10.93;5.60;;;10.30;99.90;;;;;;5028916;28;20228;-85
2022/10/12 09:29:59;;;;;;;10.03;4.93;;;10.40;99.90;;;;;;5033484;28;20279;-85
2022/10/12 09:32:43;;;;;;;10.10;4.30;;;10.60;99.90;;;;;;5030786;28;20267;-85
2022/10/12 09:35:13;;;;;;;14.43;5.10;;;10.70;99.90;;;;;;5038751;28;20245;-85
2022/10/12 09:37:40;;;;;;;15.73;5.03;;;10.80;99.90;;;;;;5041028;28;20266;-84
2022/10/12 09:40:17;;;;;;;11.13;4.67;;;11.00;99.90;;;;;;5019258;28;20201;-85
2022/10/12 09:42:46;;;;;;;10.53;4.80;;;11.20;99.90;;;;;;5026030;28;20230;-85
2022/10/12 09:45:17;;;;;;;8.37;4.27;;;11.50;99.90;;;;;;5033839;28;20226;-85
2022/10/12 09:48:09;;;;;;;12.37;4.83;;;11.70;99.90;;;;;;5033081;28;20247;-85
2022/10/12 09:50:40;;;;;;;13.07;3.87;;;12.10;99.90;;;;;;5033953;28;20208;-85
2022/10/12 09:53:15;;;;;;;12.30;3.87;;;12.70;99.90;;;;;;5034008;28;20203;-85
2022/10/12 09:55:53;;;;;;;11.37;3.60;;;12.90;1.00;;;;;;5033117;28;20211;-85
2022/10/12 09:58:21;;;;;;;6.53;3.23;;;13.10;99.90;;;;;;5034720;28;20624;-87
2022/10/12 10:01:20;;;;;;;12.67;3.50;;;13.20;99.90;;;;;;5023316;28;20559;-85
2022/10/12 10:03:51;;;;;;;11.37;3.30;;;13.60;1.00;;;;;;5012854;28;20242;-87
2022/10/12 10:06:24;;;;;;;12.47;3.30;;;13.90;54.40;;;;;;5021232;28;20664;-85
2022/10/12 10:08:51;;;;;;;9.87;3.10;;;13.90;99.90;;;;;;5034075;28;20361;-85
2022/10/12 10:11:21;;;;;;;9.20;3.00;;;13.80;1.00;;;;;;5035612;28;20203;-85
2022/10/12 10:13:52;;;;;;;11.57;3.30;;;13.80;99.90;;;;;;5029492;28;20196;-85
2022/10/12 10:16:22;;;;;;;12.77;3.33;;;13.90;99.90;;;;;;5036997;28;20307;-85
2022/10/12 10:18:56;;;;;;;8.57;3.27;;;14.30;1.00;;;;;;5037939;28;20656;-85
2022/10/12 10:21:29;;;;;;;7.17;2.87;;;14.20;1.00;;;;;;5037971;28;20192;-85
2022/10/12 10:23:58;;;;;;;7.43;3.30;;;14.40;99.90;;;;;;5038036;28;20298;-86
2022/10/12 10:26:26;;;;;;;8.47;3.37;;;14.30;62.00;;;;;;5036727;28;20217;-85
2022/10/12 10:28:57;;;;;;;8.80;3.20;;;14.40;1.00;;;;;;5038440;28;20204;-85
2022/10/12 10:31:26;;;;;;;6.40;2.40;;;14.80;1.00;;;;;;5033601;28;20212;-86
2022/10/12 10:34:12;;;;;;;11.50;3.53;;;14.80;99.90;;;;;;5018450;28;20200;-85
2022/10/12 10:36:44;;;;;;;7.93;2.80;;;15.00;1.00;;;;;;5020167;28;20236;-85
2022/10/12 10:39:18;;;;;;;9.93;2.47;;;14.70;1.00;;;;;;5032655;28;20204;-85
2022/10/12 10:41:45;;;;;;;7.47;2.90;;;14.80;12.30;;;;;;5034997;28;20204;-85
2022/10/12 10:44:29;;;;;;;6.90;2.23;;;14.80;1.00;;;;;;5032868;28;20298;-85
2022/10/12 10:46:58;;;;;;;7.65;2.55;;;15.30;1.00;;;;;;5042187;28;20239;-85
2022/10/12 10:49:35;;;;;;;5.35;2.45;;;15.20;1.00;;;;;;5039592;28;20199;-85
2022/10/12 10:52:04;;;;;;;7.40;2.80;;;15.20;99.90;;;;;;5036501;28;20546;-85
2022/10/12 10:54:33;;;;;;;7.13;2.40;;;15.40;99.90;;;;;;5037042;28;20212;-85
2022/10/12 10:57:03;;;;;;;9.80;2.95;;;15.60;99.90;;;;;;5038858;28;20370;-86
2022/10/12 10:59:40;;;;;;;8.48;2.50;;;16.10;99.90;;;;;;5036906;28;20208;-86
2022/10/12 11:02:21;;;;;;;8.43;2.60;;;16.20;66.20;;;;;;5042229;28;20253;-86
2022/10/12 11:04:53;;;;;;;6.78;2.33;;;16.40;99.90;;;;;;5025225;28;20242;-86
2022/10/12 11:07:26;;;;;;;8.48;2.13;;;16.60;1.00;;;;;;5023320;28;20238;-86
2022/10/12 11:09:57;;;;;;;8.32;2.40;;;16.70;99.90;;;;;;5027835;28;20581;-85
2022/10/12 11:12:28;;;;;;;7.47;2.17;;;17.10;1.00;;;;;;5041834;28;20214;-85
2022/10/12 11:15:00;;;;;;;9.13;2.60;;;17.10;1.00;;;;;;5041428;28;20196;-85
2022/10/12 11:17:31;;;;;;;5.90;2.03;;;17.20;1.00;;;;;;5036318;28;20224;-84
2022/10/12 11:20:11;;;;;;;6.85;2.30;;;17.30;1.00;;;;;;5038026;28;20631;-84
2022/10/12 11:22:48;;;;;;;7.53;2.53;;;17.40;1.00;;;;;;5038610;28;20222;-86
2022/10/12 11:25:21;;;;;;;4.75;2.17;;;17.60;1.00;;;;;;5038845;28;20254;-86
2022/10/12 11:27:50;;;;;;;8.57;3.00;;;17.20;1.00;;;;;;5027180;28;20234;-85
2022/10/12 11:30:19;;;;;;;4.28;2.13;;;17.80;1.00;;;;;;5017499;28;20204;-86
2022/10/12 11:32:49;;;;;;;6.85;2.15;;;17.70;1.00;;;;;;5023305;28;20231;-84
2022/10/12 11:35:28;;;;;;;5.68;2.20;;;17.70;1.00;;;;;;5044064;28;20207;-84
2022/10/12 11:38:00;;;;;;;8.75;2.75;;;17.80;1.00;;;;;;5038225;28;20229;-85
2022/10/12 11:40:30;;;;;;;5.80;2.00;;;17.60;1.00;;;;;;5036453;28;20239;-87
2022/10/12 11:43:00;;;;;;;4.53;2.53;;;17.90;1.00;;;;;;5022737;28;20216;-85
2022/10/12 11:45:31;;;;;;;6.03;2.50;;;18.10;1.00;;;;;;5038758;28;20215;-85
2022/10/12 11:48:02;;;;;;;5.13;2.08;;;18.20;1.00;;;;;;5023267;28;20220;-85
2022/10/12 11:50:35;;;;;;;4.82;2.10;;;17.80;1.00;;;;;;5017173;28;20209;-85
2022/10/12 11:53:06;;;;;;;4.20;2.22;;;18.20;1.00;;;;;;5017738;28;20232;-85
2022/10/12 11:55:50;;;;;;;4.72;1.92;;;18.00;1.00;;;;;;5018130;28;20283;-85
2022/10/12 11:58:21;;;;;;;3.58;1.92;;;18.40;1.00;;;;;;5018125;28;20224;-84
2022/10/12 12:01:08;;;;;;;4.32;1.85;;;18.40;1.00;;;;;;5036998;28;20202;-86
2022/10/12 12:04:02;;;;;;;6.28;2.97;;;18.70;1.00;;;;;;5036851;28;20208;-84
2022/10/12 12:06:55;;;;;;;7.72;2.55;;;18.70;1.00;;;;;;5036925;28;20318;-85
2022/10/12 12:09:33;;;;;;;5.65;2.33;;;18.50;99.90;;;;;;5038339;28;20219;-85
2022/10/12 12:12:24;;;;;;;5.60;2.00;;;18.60;99.90;;;;;;5037051;28;20227;-85
2022/10/12 12:15:20;;;;;;;5.05;1.77;;;18.90;99.90;;;;;;5013625;28;20208;-84
2022/10/12 12:18:10;;;;;;;4.97;2.17;;;19.50;99.90;;;;;;5036336;28;20277;-85
2022/10/12 12:21:02;;;;;;;3.08;2.00;;;19.30;99.90;;;;;;5018050;28;20208;-85
2022/10/12 12:23:36;;;;;;;6.68;2.20;;;19.70;99.90;;;;;;5017698;28;20218;-84
2022/10/12 12:26:15;;;;;;;3.30;1.70;;;19.60;99.90;;;;;;5017622;28;20228;-86
2022/10/12 12:28:43;;;;;;;5.80;1.90;;;18.90;99.90;;;;;;5018955;28;20231;-83
2022/10/12 12:31:15;;;;;;;4.90;1.70;;;19.50;99.90;;;;;;5017099;28;20215;-84
2022/10/12 12:33:45;;;;;;;6.97;3.28;;;20.00;99.90;;;;;;5019089;28;20681;-83
2022/10/12 12:36:14;;;;;;;6.05;2.20;;;21.20;99.90;;;;;;5018464;28;20212;-83
2022/10/12 12:38:50;;;;;;;4.22;1.80;;;21.00;99.90;;;;;;5019344;28;20595;-84
2022/10/12 12:41:21;;;;;;;4.70;1.70;;;20.80;99.90;;;;;;5021888;28;20223;-86
2022/10/12 12:44:04;;;;;;;4.43;1.80;;;19.50;99.90;;;;;;5038650;28;20221;-84
2022/10/12 12:47:08;;;;;;;8.10;2.10;;;18.70;99.90;;;;;;5035604;28;20227;-84
2022/10/12 12:49:47;;;;;;;8.40;2.40;;;19.40;99.90;;;;;;5030685;28;20964;-84
2022/10/12 12:52:20;;;;;;;7.80;2.47;;;18.70;99.90;;;;;;5037130;28;20261;-84
2022/10/12 12:55:12;;;;;;;5.00;2.08;;;19.00;99.90;;;;;;5027782;28;20251;-84
2022/10/12 12:58:04;;;;;;;5.43;2.13;;;19.70;99.90;;;;;;5033575;28;20520;-84
2022/10/12 13:00:38;;;;;;;6.00;2.10;;;19.40;99.90;;;;;;5024740;28;20679;-84
2022/10/12 13:03:36;;;;;;;7.63;2.35;;;19.40;99.90;;;;;;5039542;28;20283;-84
2022/10/12 13:06:50;;;;;;;5.00;2.03;;;19.00;99.90;;;;;;5025783;28;20687;-83
2022/10/12 13:09:33;;;;;;;4.28;1.85;;;18.80;99.90;;;;;;5030843;28;20242;-84
2022/10/12 13:12:25;;;;;;;3.00;1.70;;;18.70;99.90;;;;;;5037093;28;20268;-84